Time;durP1;ratioP1;P1;durP2;ratioP2;P2;SDS_P1;SDS_P2;PMS_P1;PMS_P2;Temp;Humidity;BMP_temperature;BMP_pressure;BME280_temperature;BME280_humidity;BME280_pressure;Samples;Min_cycle;Max_cycle;Signal;HPM_P1;HPM_P2
2022/05/24 00:01:12;;;;;;;10.32;6.22;;;;;;;;;;5032486;28;96889;-72
2022/05/24 00:03:38;;;;;;;12.25;7.03;;;;;;;;;;5031937;28;97737;-72
2022/05/24 00:06:05;;;;;;;13.10;7.60;;;;;;;;;;5034579;27;95339;-73
2022/05/24 00:08:31;;;;;;;12.38;7.57;;;;;;;;;;5052520;27;96956;-72
2022/05/24 00:10:57;;;;;;;14.35;7.38;;;;;;;;;;5051721;27;97424;-73
2022/05/24 00:13:24;;;;;;;12.93;7.60;;;;;;;;;;5052249;27;95103;-73
2022/05/24 00:15:50;;;;;;;14.20;7.63;;;;;;;;;;5055343;27;96590;-73
2022/05/24 00:18:18;;;;;;;11.05;7.50;;;;;;;;;;5049729;27;95299;-72
2022/05/24 00:20:52;;;;;;;13.05;8.35;;;;;;;;;;5037605;27;96707;-74
2022/05/24 00:23:19;;;;;;;12.32;7.57;;;;;;;;;;5055576;27;97685;-74
2022/05/24 00:25:47;;;;;;;13.48;7.72;;;;;;;;;;5055153;27;95408;-73
2022/05/24 00:28:14;;;;;;;12.63;7.93;;;;;;;;;;5053297;27;96860;-72
2022/05/24 00:30:41;;;;;;;13.93;8.40;;;;;;;;;;5055551;27;97304;-72
2022/05/24 00:33:07;;;;;;;17.02;9.13;;;;;;;;;;5055257;27;95250;-76
2022/05/24 00:35:33;;;;;;;15.10;8.35;;;;;;;;;;5037457;27;96876;-72
2022/05/24 00:38:00;;;;;;;15.95;9.50;;;;;;;;;;5045857;27;97239;-73
2022/05/24 00:40:41;;;;;;;14.50;9.20;;;;;;;;;;5033936;27;96998;-74
2022/05/24 00:43:10;;;;;;;14.70;8.63;;;;;;;;;;5035089;27;96365;-74
2022/05/24 00:45:39;;;;;;;15.10;8.90;;;;;;;;;;5035190;28;95335;-73
2022/05/24 00:48:07;;;;;;;13.40;8.63;;;;;;;;;;5047344;27;96936;-73
2022/05/24 00:50:38;;;;;;;14.50;8.52;;;;;;;;;;5054897;27;97447;-71
2022/05/24 00:53:06;;;;;;;15.30;9.00;;;;;;;;;;5055068;27;95382;-72
2022/05/24 00:55:53;;;;;;;15.65;8.55;;;;;;;;;;5055411;27;96722;-71
2022/05/24 00:58:25;;;;;;;15.40;7.53;;;;;;;;;;5053865;27;97250;-72
2022/05/24 01:00:52;;;;;;;14.15;8.32;;;;;;;;;;5040289;27;95303;-72
2022/05/24 01:03:19;;;;;;;15.80;8.95;;;;;;;;;;5054758;27;97310;-71
2022/05/24 01:05:45;;;;;;;17.90;8.57;;;;;;;;;;5055167;27;95119;-72
2022/05/24 01:08:11;;;;;;;15.45;8.50;;;;;;;;;;5051682;27;96782;-73
2022/05/24 01:10:51;;;;;;;15.73;8.30;;;;;;;;;;5053089;27;96023;-72
2022/05/24 01:13:24;;;;;;;15.70;8.95;;;;;;;;;;5054003;27;95189;-73
2022/05/24 01:15:51;;;;;;;15.98;8.60;;;;;;;;;;5054876;27;96795;-74
2022/05/24 01:18:18;;;;;;;16.05;9.10;;;;;;;;;;5052776;27;96030;-72
2022/05/24 01:20:48;;;;;;;16.52;8.32;;;;;;;;;;5055214;27;95369;-72
2022/05/24 01:23:14;;;;;;;14.43;9.38;;;;;;;;;;5058031;27;96876;-72
2022/05/24 01:25:55;;;;;;;17.45;8.00;;;;;;;;;;5054443;27;95386;-73
2022/05/24 01:28:27;;;;;;;12.55;8.00;;;;;;;;;;5053280;27;96841;-73
2022/05/24 01:30:54;;;;;;;15.73;8.38;;;;;;;;;;5054146;27;97085;-73
2022/05/24 01:36:10;;;;;;;13.23;7.90;;;;;;;;;;5054802;27;96981;-72
2022/05/24 01:38:39;;;;;;;14.85;8.20;;;;;;;;;;5043743;27;97389;-72
2022/05/24 01:41:06;;;;;;;13.02;7.53;;;;;;;;;;5034388;28;95256;-71
2022/05/24 01:43:32;;;;;;;13.05;7.75;;;;;;;;;;5033881;28;96779;-71
2022/05/24 01:46:00;;;;;;;13.43;6.78;;;;;;;;;;5037444;28;97767;-71
2022/05/24 01:48:31;;;;;;;11.38;7.10;;;;;;;;;;5023673;27;96730;-71
2022/05/24 01:50:59;;;;;;;11.88;6.80;;;;;;;;;;5053941;27;97308;-73
2022/05/24 01:53:36;;;;;;;11.88;6.18;;;;;;;;;;5054407;27;95186;-73
2022/05/24 01:56:42;;;;;;;12.27;5.60;;;;;;;;;;5053898;27;99006;-73
2022/05/24 01:59:09;;;;;;;10.18;5.28;;;;;;;;;;4990007;28;96224;-74
2022/05/24 02:01:47;;;;;;;9.45;5.43;;;;;;;;;;5034057;28;95380;-74
2022/05/24 02:04:15;;;;;;;8.88;5.28;;;;;;;;;;5033562;28;96840;-72
2022/05/24 02:06:41;;;;;;;9.43;4.95;;;;;;;;;;5037148;28;97361;-71
2022/05/24 02:09:08;;;;;;;8.93;4.40;;;;;;;;;;5044300;27;97033;-71
2022/05/24 02:11:34;;;;;;;6.95;4.47;;;;;;;;;;5053349;27;95921;-71
2022/05/24 02:14:08;;;;;;;9.73;5.03;;;;;;;;;;5054479;27;95311;-71
2022/05/24 02:16:37;;;;;;;11.05;4.40;;;;;;;;;;5054019;27;97207;-71
2022/05/24 02:19:05;;;;;;;8.40;4.75;;;;;;;;;;5052590;27;97265;-71
2022/05/24 02:21:32;;;;;;;7.32;4.35;;;;;;;;;;5053515;27;95395;-72
2022/05/24 02:23:58;;;;;;;6.38;3.72;;;;;;;;;;5053869;27;95764;-72
2022/05/24 02:26:26;;;;;;;8.25;4.93;;;;;;;;;;5052876;27;98411;-70
2022/05/24 02:28:53;;;;;;;12.15;4.50;;;;;;;;;;5056457;27;95247;-71
2022/05/24 02:31:22;;;;;;;8.77;4.47;;;;;;;;;;5053522;27;97075;-72
2022/05/24 02:33:48;;;;;;;8.82;4.78;;;;;;;;;;5053093;27;95285;-72
2022/05/24 02:36:15;;;;;;;10.05;4.55;;;;;;;;;;5053476;27;95255;-72
2022/05/24 02:38:42;;;;;;;7.05;4.30;;;;;;;;;;5052420;27;97382;-71
2022/05/24 02:43:53;;;;;;;7.47;3.83;;;;;;;;;;5053000;27;95750;-72
2022/05/24 02:46:19;;;;;;;11.07;4.20;;;;;;;;;;5034409;27;97072;-73
2022/05/24 02:48:47;;;;;;;8.00;4.78;;;;;;;;;;5051119;27;95397;-73
2022/05/24 02:51:14;;;;;;;7.40;4.35;;;;;;;;;;5056523;27;96702;-75
2022/05/24 02:53:42;;;;;;;9.63;4.75;;;;;;;;;;5053261;27;95248;-71
2022/05/24 02:56:09;;;;;;;8.77;4.55;;;;;;;;;;5053454;27;97072;-72
2022/05/24 02:58:35;;;;;;;9.65;4.93;;;;;;;;;;5052289;27;96762;-72
2022/05/24 03:01:03;;;;;;;9.02;4.97;;;;;;;;;;5052615;27;95269;-72
2022/05/24 03:03:29;;;;;;;9.35;4.40;;;;;;;;;;5053691;27;97169;-72
2022/05/24 03:05:55;;;;;;;8.82;5.00;;;;;;;;;;5035167;27;97390;-72
2022/05/24 03:11:10;;;;;;;12.82;5.57;;;;;;;;;;5032189;28;95786;-71
2022/05/24 03:16:22;;;;;;;7.65;4.68;;;;;;;;;;5032495;28;96767;-71
2022/05/24 03:18:48;;;;;;;10.98;4.93;;;;;;;;;;5047358;27;97399;-71
2022/05/24 20:09:23;;;;;;;3.10;1.80;;;;;;;;;;5071231;27;1266596;-71
2022/05/24 20:11:49;;;;;;;1.83;1.63;;;;;;;;;;5089174;27;97363;-71
2022/05/24 20:14:15;;;;;;;1.85;1.52;;;;;;;;;;5089241;27;95473;-71
2022/05/24 20:16:42;;;;;;;3.90;2.00;;;;;;;;;;5083225;27;97123;-71
2022/05/24 20:19:08;;;;;;;3.40;1.90;;;;;;;;;;5071905;27;97188;-73
2022/05/24 20:21:35;;;;;;;4.40;2.28;;;;;;;;;;5083789;27;95157;-73
2022/05/24 20:24:01;;;;;;;4.18;2.22;;;;;;;;;;5070366;27;95940;-71
2022/05/24 20:26:28;;;;;;;3.50;2.03;;;;;;;;;;5081252;27;97258;-72
2022/05/24 20:28:54;;;;;;;4.60;2.70;;;;;;;;;;5093401;27;95266;-72
2022/05/24 20:31:20;;;;;;;3.63;1.90;;;;;;;;;;5076460;27;97260;-71
2022/05/24 20:33:47;;;;;;;7.32;2.40;;;;;;;;;;5069704;27;95192;-72
2022/05/24 20:36:13;;;;;;;4.82;2.55;;;;;;;;;;5069120;27;95491;-72
2022/05/24 20:38:40;;;;;;;10.52;2.67;;;;;;;;;;5077960;27;96172;-74
2022/05/24 20:41:07;;;;;;;4.18;2.05;;;;;;;;;;5087713;27;96402;-73
2022/05/24 20:43:34;;;;;;;4.35;2.35;;;;;;;;;;5089127;27;96626;-71
2022/05/24 20:46:00;;;;;;;4.45;2.33;;;;;;;;;;5090907;27;97357;-73
2022/05/24 20:48:27;;;;;;;3.20;2.25;;;;;;;;;;5089492;27;95391;-72
2022/05/24 20:50:53;;;;;;;3.40;2.13;;;;;;;;;;5088020;27;96870;-75
2022/05/24 20:53:19;;;;;;;3.95;2.10;;;;;;;;;;5079679;27;95191;-75
2022/05/24 20:55:46;;;;;;;4.28;2.30;;;;;;;;;;5083096;27;96534;-72
2022/05/24 20:58:12;;;;;;;3.17;2.00;;;;;;;;;;5090076;27;96217;-75
2022/05/24 21:00:39;;;;;;;3.53;2.15;;;;;;;;;;5090264;27;95363;-74
2022/05/24 21:03:05;;;;;;;4.45;2.28;;;;;;;;;;5085547;27;96707;-75
2022/05/24 21:05:43;;;;;;;3.00;1.92;;;;;;;;;;5090343;27;97552;-77
2022/05/24 21:08:09;;;;;;;4.03;2.10;;;;;;;;;;5089739;27;95281;-75
2022/05/24 21:10:43;;;;;;;2.75;1.80;;;;;;;;;;5088225;27;95758;-73
2022/05/24 21:13:09;;;;;;;4.03;1.98;;;;;;;;;;5091146;27;97382;-71
2022/05/24 21:15:36;;;;;;;9.73;2.03;;;;;;;;;;5083998;27;96790;-73
2022/05/24 21:18:03;;;;;;;9.93;2.58;;;;;;;;;;5085940;27;96597;-72
2022/05/24 21:20:34;;;;;;;3.45;2.20;;;;;;;;;;5072361;27;95657;-72
2022/05/24 21:23:00;;;;;;;3.30;2.28;;;;;;;;;;5076844;27;96888;-76
2022/05/24 21:28:29;;;;;;;3.72;2.05;;;;;;;;;;5076116;27;95210;-73
2022/05/24 21:30:56;;;;;;;3.70;2.33;;;;;;;;;;5068901;27;95810;-71
2022/05/24 21:33:24;;;;;;;3.95;2.42;;;;;;;;;;5060459;27;97352;-70
2022/05/24 21:35:51;;;;;;;4.05;2.33;;;;;;;;;;5064732;27;95713;-75
2022/05/24 21:38:18;;;;;;;3.92;2.17;;;;;;;;;;5073827;27;98612;-73
2022/05/24 21:40:45;;;;;;;5.28;2.38;;;;;;;;;;5064363;27;95331;-73
2022/05/24 21:43:12;;;;;;;4.88;1.95;;;;;;;;;;5068698;27;96716;-71
2022/05/24 21:45:39;;;;;;;3.35;2.20;;;;;;;;;;5061703;27;97313;-74
2022/05/24 21:48:09;;;;;;;3.13;2.08;;;;;;;;;;5055879;27;95322;-73
2022/05/24 21:50:39;;;;;;;3.35;2.08;;;;;;;;;;5056409;27;96896;-74
2022/05/24 21:53:10;;;;;;;5.60;2.65;;;;;;;;;;5055091;27;97393;-75
2022/05/24 21:55:37;;;;;;;3.80;2.08;;;;;;;;;;5055404;27;95187;-77
2022/05/24 21:58:04;;;;;;;8.85;2.38;;;;;;;;;;5060216;27;96937;-72
2022/05/24 22:00:37;;;;;;;6.00;2.78;;;;;;;;;;5072352;27;95559;-76
2022/05/24 22:03:04;;;;;;;5.32;2.40;;;;;;;;;;5055517;27;96879;-75
2022/05/24 22:05:30;;;;;;;4.25;2.03;;;;;;;;;;5055056;27;97416;-71
2022/05/24 22:07:56;;;;;;;3.05;2.10;;;;;;;;;;5054539;27;95346;-73
2022/05/24 22:10:23;;;;;;;3.53;2.08;;;;;;;;;;5053481;27;96683;-74
2022/05/24 22:12:49;;;;;;;3.20;2.22;;;;;;;;;;5057908;27;97465;-72
2022/05/24 22:15:16;;;;;;;3.60;2.25;;;;;;;;;;5075416;27;95320;-72
2022/05/24 22:17:43;;;;;;;3.35;2.10;;;;;;;;;;5075611;27;95943;-72
2022/05/24 22:20:10;;;;;;;3.83;2.17;;;;;;;;;;5077574;27;95382;-72
2022/05/24 22:22:36;;;;;;;4.30;2.50;;;;;;;;;;5057857;27;96920;-73
2022/05/24 22:25:03;;;;;;;4.10;2.17;;;;;;;;;;5054988;27;97340;-73
2022/05/24 22:27:29;;;;;;;5.05;2.50;;;;;;;;;;5056483;27;95382;-72
2022/05/24 22:29:55;;;;;;;4.32;2.33;;;;;;;;;;5075541;27;97214;-75
2022/05/24 22:32:22;;;;;;;8.45;2.95;;;;;;;;;;5058698;27;97335;-74
2022/05/24 22:34:48;;;;;;;4.35;2.53;;;;;;;;;;5054117;27;95381;-72
2022/05/24 22:37:14;;;;;;;4.30;2.50;;;;;;;;;;5055179;27;96767;-75
2022/05/24 22:39:41;;;;;;;4.43;2.30;;;;;;;;;;5057712;27;95908;-77
2022/05/24 22:42:07;;;;;;;4.00;2.47;;;;;;;;;;5055458;27;96761;-71
2022/05/24 22:47:19;;;;;;;5.15;2.35;;;;;;;;;;5075435;27;95352;-74
2022/05/24 22:49:45;;;;;;;4.47;2.67;;;;;;;;;;5075118;27;96792;-72
2022/05/24 22:52:12;;;;;;;4.65;2.17;;;;;;;;;;5073570;27;97638;-74
2022/05/24 22:54:40;;;;;;;6.75;3.05;;;;;;;;;;5074739;27;95382;-75
2022/05/24 22:57:06;;;;;;;11.05;2.72;;;;;;;;;;5073657;27;97047;-74
2022/05/24 22:59:32;;;;;;;3.85;2.47;;;;;;;;;;5074101;27;97455;-74
2022/05/24 23:01:59;;;;;;;4.53;2.40;;;;;;;;;;5070526;27;95229;-71
2022/05/24 23:04:25;;;;;;;6.32;2.50;;;;;;;;;;5062766;27;97667;-74
2022/05/24 23:06:52;;;;;;;6.00;3.03;;;;;;;;;;5075026;27;95312;-72
2022/05/24 23:09:18;;;;;;;6.05;2.38;;;;;;;;;;5074198;27;96792;-72
2022/05/24 23:11:45;;;;;;;4.60;2.70;;;;;;;;;;5069250;27;96318;-73
2022/05/24 23:14:11;;;;;;;4.72;2.72;;;;;;;;;;5054466;27;95349;-72
2022/05/24 23:16:37;;;;;;;4.57;2.60;;;;;;;;;;5052032;27;97601;-73
2022/05/24 23:19:04;;;;;;;4.35;2.50;;;;;;;;;;5053364;27;96741;-74
2022/05/24 23:21:31;;;;;;;13.93;3.20;;;;;;;;;;5053913;27;95317;-73
2022/05/24 23:23:58;;;;;;;3.72;2.38;;;;;;;;;;5056240;27;96717;-71
2022/05/24 23:26:24;;;;;;;5.47;2.80;;;;;;;;;;5053390;27;95361;-72
2022/05/24 23:28:50;;;;;;;4.60;2.80;;;;;;;;;;5053800;27;97172;-71
2022/05/24 23:31:17;;;;;;;3.38;2.40;;;;;;;;;;5057002;27;97346;-72
2022/05/24 23:33:43;;;;;;;3.85;2.30;;;;;;;;;;5074329;27;95307;-72
2022/05/24 23:36:09;;;;;;;4.47;2.50;;;;;;;;;;5071262;27;97202;-72
2022/05/24 23:38:37;;;;;;;10.68;3.20;;;;;;;;;;5053050;27;97313;-72
2022/05/24 23:41:03;;;;;;;2.85;2.00;;;;;;;;;;5053942;27;95327;-74
2022/05/24 23:43:29;;;;;;;12.10;3.33;;;;;;;;;;5053360;27;96791;-72
2022/05/24 23:45:59;;;;;;;9.73;2.50;;;;;;;;;;5060172;27;97329;-71
2022/05/24 23:48:25;;;;;;;6.10;2.20;;;;;;;;;;5054929;27;96747;-73
2022/05/24 23:50:52;;;;;;;4.00;2.65;;;;;;;;;;5053519;27;97307;-73
2022/05/24 23:53:18;;;;;;;3.88;2.53;;;;;;;;;;5055281;27;96964;-71
2022/05/24 23:55:45;;;;;;;6.32;2.55;;;;;;;;;;5074372;27;96842;-71
2022/05/24 23:58:11;;;;;;;5.47;3.13;;;;;;;;;;5057605;27;96889;-72
